createdAt,value
2023-01-12T00:01:30.477Z,8.02
2023-01-12T00:03:57.198Z,8.09
2023-01-12T00:06:24.419Z,8.04
2023-01-12T00:08:52.171Z,8.03
2023-01-12T00:11:19.844Z,8.08
2023-01-12T00:13:46.213Z,8.10
2023-01-12T00:16:36.546Z,8.06
2023-01-12T00:19:13.463Z,8.12
2023-01-12T00:21:50.328Z,8.15
2023-01-12T00:24:18.319Z,8.08
2023-01-12T00:26:45.896Z,8.17
2023-01-12T00:29:12.360Z,8.17
2023-01-12T00:31:38.680Z,8.17
2023-01-12T00:34:05.081Z,8.36
2023-01-12T00:36:31.405Z,8.22
2023-01-12T00:38:57.707Z,8.16
2023-01-12T00:41:42.751Z,8.21
2023-01-12T00:44:27.442Z,8.17
2023-01-12T00:46:53.791Z,8.14
2023-01-12T00:49:20.116Z,8.15
2023-01-12T00:51:46.559Z,8.19
2023-01-12T00:54:12.853Z,8.29
2023-01-12T00:56:39.481Z,8.23
2023-01-12T00:59:06.427Z,8.31
2023-01-12T01:01:34.323Z,8.25
2023-01-12T01:04:01.486Z,8.30
2023-01-12T01:06:27.850Z,8.29
2023-01-12T01:08:54.182Z,8.28
2023-01-12T01:11:20.534Z,8.23
2023-01-12T01:13:46.840Z,8.29
2023-01-12T01:16:15.265Z,8.31
2023-01-12T01:18:42.926Z,8.27
2023-01-12T01:21:11.431Z,8.37
2023-01-12T01:23:38.530Z,8.38
2023-01-12T01:26:08.171Z,8.28
2023-01-12T01:28:35.557Z,8.31
2023-01-12T01:31:06.970Z,8.33
2023-01-12T01:33:33.582Z,8.34
2023-01-12T01:36:00.091Z,8.34
2023-01-12T01:38:27.029Z,8.47
2023-01-12T01:40:53.951Z,8.34
2023-01-12T01:43:23.559Z,8.36
2023-01-12T01:46:08.176Z,8.31
2023-01-12T01:48:38.534Z,8.34
2023-01-12T01:51:10.007Z,8.38
2023-01-12T01:53:39.579Z,8.41
2023-01-12T01:56:11.503Z,8.41
2023-01-12T01:58:44.819Z,8.37
2023-01-12T02:01:11.176Z,8.44
2023-01-12T02:03:38.263Z,8.36
2023-01-12T02:06:06.963Z,8.32
2023-01-12T02:08:55.984Z,8.37
2023-01-12T02:11:41.046Z,8.40
2023-01-12T02:14:27.868Z,8.38
2023-01-12T02:17:12.384Z,8.42
2023-01-12T02:20:12.977Z,8.46
2023-01-12T02:23:06.501Z,8.43
2023-01-12T02:25:44.448Z,8.35
2023-01-12T02:28:39.872Z,8.36
2023-01-12T02:31:33.697Z,8.41
2023-01-12T02:34:14.283Z,8.36
2023-01-12T02:37:12.271Z,8.39
2023-01-12T02:39:46.664Z,8.22
2023-01-12T02:42:43.266Z,8.45
2023-01-12T02:45:25.319Z,8.40
2023-01-12T02:48:00.103Z,8.40
2023-01-12T02:50:43.834Z,8.48
2023-01-12T02:53:20.818Z,8.50
2023-01-12T02:55:48.320Z,8.47
2023-01-12T02:58:18.469Z,8.47
2023-01-12T03:00:48.305Z,8.37
2023-01-12T03:03:17.147Z,8.43
2023-01-12T03:05:43.883Z,8.34
2023-01-12T03:08:16.004Z,8.34
2023-01-12T03:10:42.748Z,8.40
2023-01-12T03:13:13.526Z,8.39
2023-01-12T03:15:44.462Z,8.44
2023-01-12T03:18:25.693Z,8.43
2023-01-12T03:21:00.994Z,8.45
2023-01-12T03:23:54.287Z,8.52
2023-01-12T03:26:25.304Z,8.55
2023-01-12T03:28:58.461Z,8.47
2023-01-12T03:31:24.849Z,8.50
2023-01-12T03:33:51.347Z,8.54
2023-01-12T03:36:48.995Z,8.49
2023-01-12T03:39:36.662Z,8.53
2023-01-12T03:42:11.124Z,8.44
2023-01-12T03:44:37.458Z,8.47
2023-01-12T03:47:19.816Z,8.38
2023-01-12T03:49:53.060Z,8.47
2023-01-12T03:52:22.345Z,8.41
2023-01-12T03:54:50.941Z,8.39
2023-01-12T03:57:17.638Z,8.44
2023-01-12T03:59:44.042Z,8.49
2023-01-12T04:02:10.447Z,8.43
2023-01-12T04:04:36.790Z,8.44
2023-01-12T04:07:03.134Z,8.54
2023-01-12T04:09:29.512Z,8.50
2023-01-12T04:12:11.074Z,8.54
2023-01-12T04:14:47.647Z,8.41
2023-01-12T04:17:15.222Z,8.52
2023-01-12T04:19:42.203Z,8.52
2023-01-12T04:22:28.354Z,8.51
2023-01-12T04:24:54.723Z,8.50
2023-01-12T04:27:21.031Z,8.58
2023-01-12T04:29:47.399Z,8.52
2023-01-12T04:32:13.784Z,8.57
2023-01-12T04:34:40.184Z,8.54
2023-01-12T04:37:06.621Z,8.46
2023-01-12T04:39:32.919Z,8.39
2023-01-12T04:41:59.234Z,8.50
2023-01-12T04:44:25.541Z,8.44
2023-01-12T04:46:51.911Z,8.47
2023-01-12T04:49:18.458Z,8.35
2023-01-12T04:51:45.170Z,8.47
2023-01-12T04:54:11.685Z,8.46
2023-01-12T04:56:38.148Z,8.40
2023-01-12T04:59:06.753Z,8.43
2023-01-12T05:01:33.242Z,8.43
2023-01-12T05:04:03.069Z,8.45
2023-01-12T05:06:29.428Z,8.44
2023-01-12T05:09:14.358Z,8.46
2023-01-12T05:11:40.678Z,8.48
2023-01-12T05:14:07.069Z,8.43
2023-01-12T05:16:33.702Z,8.40
2023-01-12T05:19:00.037Z,8.43
2023-01-12T05:21:26.338Z,8.52
2023-01-12T05:23:52.963Z,8.44
2023-01-12T05:26:19.860Z,8.48
2023-01-12T05:28:50.149Z,8.46
2023-01-12T05:31:17.070Z,8.50
2023-01-12T05:33:43.508Z,8.48
2023-01-12T05:36:13.593Z,8.48
2023-01-12T05:38:40.494Z,8.56
2023-01-12T05:41:10.112Z,8.49
2023-01-12T05:43:51.715Z,8.51
2023-01-12T05:46:28.009Z,8.53
2023-01-12T05:48:55.765Z,8.54
2023-01-12T05:51:25.089Z,8.55
2023-01-12T05:53:51.688Z,8.55
2023-01-12T05:56:25.542Z,8.53
2023-01-12T05:58:53.354Z,8.54
2023-01-12T06:01:20.492Z,8.58
2023-01-12T06:03:58.748Z,8.54
2023-01-12T06:06:27.772Z,8.54
2023-01-12T06:08:54.397Z,8.58
2023-01-12T06:11:40.040Z,8.54
2023-01-12T06:14:07.770Z,8.46
2023-01-12T06:16:37.269Z,8.46
2023-01-12T06:19:03.618Z,8.36
2023-01-12T06:21:32.451Z,8.50
2023-01-12T06:23:58.763Z,8.35
2023-01-12T06:26:25.253Z,8.42
2023-01-12T06:28:51.606Z,8.35
2023-01-12T06:31:17.935Z,8.38
2023-01-12T06:33:44.310Z,8.39
2023-01-12T06:36:11.400Z,8.23
2023-01-12T06:38:37.972Z,8.19
2023-01-12T06:41:06.757Z,8.24
2023-01-12T06:43:33.686Z,8.29
2023-01-12T06:46:00.148Z,8.26
2023-01-12T06:48:26.591Z,8.35
2023-01-12T06:51:05.873Z,8.40
2023-01-12T06:53:32.229Z,8.37
2023-01-12T06:55:58.561Z,8.43
2023-01-12T06:58:24.928Z,8.37
2023-01-12T07:00:51.291Z,8.37
2023-01-12T07:03:19.511Z,8.31
2023-01-12T07:05:46.386Z,8.13
2023-01-12T07:08:15.886Z,8.20
2023-01-12T07:10:42.775Z,8.27
2023-01-12T07:13:09.082Z,8.18
2023-01-12T07:15:35.652Z,8.25
2023-01-12T07:18:02.179Z,8.28
2023-01-12T07:20:28.631Z,8.36
2023-01-12T07:22:55.857Z,8.38
2023-01-12T07:25:23.047Z,8.34
2023-01-12T07:27:51.630Z,8.25
2023-01-12T07:30:20.109Z,8.20
2023-01-12T07:32:46.506Z,8.16
2023-01-12T07:35:13.006Z,8.10
2023-01-12T07:37:39.348Z,8.18
2023-01-12T07:40:06.289Z,8.24
2023-01-12T07:42:33.364Z,8.21
2023-01-12T07:44:59.713Z,8.26
2023-01-12T07:47:27.879Z,8.20
2023-01-12T07:49:54.202Z,8.16
2023-01-12T07:52:20.484Z,8.28
2023-01-12T07:54:46.799Z,8.21
2023-01-12T07:57:13.200Z,8.33
2023-01-12T07:59:39.635Z,8.26
2023-01-12T08:02:07.093Z,8.26
2023-01-12T08:04:33.957Z,8.29
2023-01-12T08:07:00.286Z,8.38
2023-01-12T08:09:27.794Z,8.29
2023-01-12T08:11:54.095Z,8.35
2023-01-12T08:14:28.069Z,8.30
2023-01-12T08:16:56.514Z,8.16
2023-01-12T08:19:26.564Z,8.36
2023-01-12T08:21:58.713Z,8.35
2023-01-12T08:24:33.971Z,8.29
2023-01-12T08:27:04.489Z,8.41
2023-01-12T08:29:41.930Z,8.37
2023-01-12T08:32:09.410Z,8.35
2023-01-12T08:34:38.452Z,8.41
2023-01-12T08:37:07.869Z,8.32
2023-01-12T08:39:35.257Z,8.34
2023-01-12T08:42:02.408Z,8.38
2023-01-12T08:44:34.551Z,8.37
2023-01-12T08:47:01.316Z,8.49
2023-01-12T08:49:29.775Z,8.40
2023-01-12T08:51:56.321Z,8.37
2023-01-12T08:54:23.087Z,8.35
2023-01-12T08:56:49.791Z,8.42
2023-01-12T08:59:16.501Z,8.41
2023-01-12T09:01:42.962Z,8.56
2023-01-12T09:04:09.408Z,8.51
2023-01-12T09:06:40.876Z,8.61
2023-01-12T09:09:13.429Z,8.59
2023-01-12T09:11:41.492Z,8.53
2023-01-12T09:14:08.596Z,8.53
2023-01-12T09:16:35.097Z,8.62
2023-01-12T09:19:01.748Z,8.59
2023-01-12T09:21:30.263Z,8.64
2023-01-12T09:23:57.286Z,8.62
2023-01-12T09:26:31.991Z,8.61
2023-01-12T09:28:59.627Z,8.63
2023-01-12T09:31:27.317Z,8.63
2023-01-12T09:33:54.504Z,8.65
2023-01-12T09:36:23.557Z,8.64
2023-01-12T09:38:50.175Z,8.64
2023-01-12T09:41:16.502Z,8.59
2023-01-12T09:44:02.007Z,8.63
2023-01-12T09:46:56.856Z,8.62
2023-01-12T09:49:31.826Z,8.69
2023-01-12T09:52:16.207Z,8.74
2023-01-12T09:54:43.417Z,8.75
2023-01-12T09:57:46.765Z,8.74
2023-01-12T10:00:15.785Z,8.85
2023-01-12T10:02:47.079Z,8.89
2023-01-12T10:05:40.040Z,8.90
2023-01-12T10:08:15.993Z,8.84
2023-01-12T10:10:55.198Z,8.80
2023-01-12T10:13:22.296Z,8.82
2023-01-12T10:15:57.236Z,8.88
2023-01-12T10:18:33.293Z,8.92
2023-01-12T10:21:00.033Z,8.91
2023-01-12T10:23:27.847Z,9.00
2023-01-12T10:26:13.319Z,9.00
2023-01-12T10:28:44.572Z,8.96
2023-01-12T10:31:15.373Z,8.95
2023-01-12T10:34:02.000Z,8.96
2023-01-12T10:36:29.459Z,9.00
2023-01-12T10:39:00.846Z,9.01
2023-01-12T10:41:28.467Z,9.12
2023-01-12T10:43:54.775Z,9.20
2023-01-12T10:46:23.986Z,9.19
2023-01-12T10:48:53.883Z,9.24
2023-01-12T10:51:30.160Z,9.22
2023-01-12T10:54:17.579Z,9.19
2023-01-12T10:57:03.973Z,9.23
2023-01-12T10:59:38.081Z,9.15
2023-01-12T11:02:13.938Z,9.21
2023-01-12T11:04:48.940Z,9.20
2023-01-12T11:07:31.570Z,9.26
2023-01-12T11:10:19.827Z,9.30
2023-01-12T11:12:57.121Z,9.26
2023-01-12T11:15:23.525Z,9.29
2023-01-12T11:18:03.553Z,9.32
2023-01-12T11:20:40.772Z,9.30
2023-01-12T11:23:19.020Z,9.32
2023-01-12T11:25:47.621Z,9.37
2023-01-12T11:28:35.222Z,9.32
2023-01-12T11:31:21.585Z,9.34
2023-01-12T11:34:24.885Z,9.38
2023-01-12T11:36:59.102Z,9.41
2023-01-12T11:39:28.719Z,9.38
2023-01-12T11:42:18.740Z,9.32
2023-01-12T11:45:23.120Z,9.38
2023-01-12T11:47:58.168Z,9.36
2023-01-12T11:50:28.952Z,9.44
2023-01-12T11:52:56.178Z,9.40
2023-01-12T11:55:42.880Z,9.38
2023-01-12T11:58:35.980Z,9.38
2023-01-12T12:01:31.767Z,9.33
2023-01-12T12:04:03.961Z,9.45
2023-01-12T12:06:45.191Z,9.48
2023-01-12T12:09:17.590Z,9.40
2023-01-12T12:12:00.843Z,9.41
2023-01-12T12:15:04.086Z,9.46
2023-01-12T12:18:00.226Z,9.49
2023-01-12T12:20:42.557Z,9.49
2023-01-12T12:23:37.088Z,9.48
2023-01-12T12:26:23.955Z,9.51
2023-01-12T12:29:20.605Z,9.46
2023-01-12T12:32:08.668Z,9.45
2023-01-12T12:35:00.131Z,9.47
2023-01-12T12:37:35.362Z,9.55
2023-01-12T12:40:55.643Z,9.55
2023-01-12T12:43:54.157Z,9.54
2023-01-12T12:46:47.334Z,9.50
2023-01-12T12:49:22.105Z,9.56
2023-01-12T12:51:50.871Z,9.50
2023-01-12T12:54:20.249Z,9.39
2023-01-12T12:56:48.520Z,9.46
2023-01-12T12:59:32.919Z,9.56
2023-01-12T13:02:01.230Z,9.59
2023-01-12T13:04:42.724Z,9.53
2023-01-12T13:07:16.594Z,9.51
2023-01-12T13:09:43.701Z,9.50
2023-01-12T13:12:30.149Z,9.45
2023-01-12T13:15:23.558Z,9.49
2023-01-12T13:17:52.767Z,9.50
2023-01-12T13:20:25.623Z,9.50
2023-01-12T13:22:52.743Z,9.39
2023-01-12T13:25:27.076Z,9.46
2023-01-12T13:27:59.935Z,9.53
2023-01-12T13:30:26.237Z,9.45
2023-01-12T13:33:14.617Z,9.40
2023-01-12T13:35:44.078Z,9.45
2023-01-12T13:38:25.414Z,9.40
2023-01-12T13:40:55.727Z,9.38
2023-01-12T13:43:31.949Z,9.43
2023-01-12T13:46:14.501Z,9.43
2023-01-12T13:48:45.507Z,9.47
2023-01-12T13:51:33.347Z,9.45
2023-01-12T13:54:06.064Z,9.47
2023-01-12T13:56:33.117Z,9.48
2023-01-12T13:59:02.268Z,9.49
2023-01-12T14:01:33.325Z,9.49
2023-01-12T14:04:11.761Z,9.54
2023-01-12T14:07:04.561Z,9.49
2023-01-12T14:10:05.203Z,9.51
2023-01-12T14:12:55.953Z,9.49
2023-01-12T14:15:56.472Z,9.50
2023-01-12T14:18:25.570Z,9.50
2023-01-12T14:20:53.095Z,9.56
2023-01-12T14:23:28.822Z,9.54
2023-01-12T14:26:14.738Z,9.55
2023-01-12T14:28:46.370Z,9.55
2023-01-12T14:31:24.003Z,9.62
2023-01-12T14:33:53.501Z,9.60
2023-01-12T14:36:27.143Z,9.62
2023-01-12T14:38:54.635Z,9.68
2023-01-12T14:41:43.593Z,9.67
2023-01-12T14:44:39.238Z,9.74
2023-01-12T14:47:05.682Z,9.72
2023-01-12T14:49:35.164Z,9.75
2023-01-12T14:52:21.859Z,9.77
2023-01-12T14:54:48.676Z,9.66
2023-01-12T14:57:28.549Z,9.72
2023-01-12T14:59:55.141Z,9.76
2023-01-12T15:02:37.211Z,9.74
2023-01-12T15:05:19.011Z,9.77
2023-01-12T15:08:03.783Z,9.72
2023-01-12T15:10:33.902Z,9.71
2023-01-12T15:13:25.382Z,9.74
2023-01-12T15:16:10.575Z,9.71
2023-01-12T15:18:56.089Z,9.61
2023-01-12T15:21:42.509Z,9.68
2023-01-12T15:24:48.605Z,9.76
2023-01-12T15:27:17.329Z,9.72
2023-01-12T15:29:44.350Z,9.80
2023-01-12T15:32:16.723Z,9.77
2023-01-12T15:34:43.040Z,9.79
2023-01-12T15:37:18.301Z,9.75
2023-01-12T15:39:45.308Z,9.72
2023-01-12T15:42:16.277Z,9.75
2023-01-12T15:44:47.099Z,9.71
2023-01-12T15:47:15.382Z,9.73
2023-01-12T15:49:44.068Z,9.75
2023-01-12T15:52:13.789Z,9.76
2023-01-12T15:54:41.246Z,9.76
2023-01-12T15:57:11.816Z,9.74
2023-01-12T15:59:38.889Z,9.72
2023-01-12T16:02:24.756Z,9.84
2023-01-12T16:04:51.178Z,9.77
2023-01-12T16:07:17.633Z,9.69
2023-01-12T16:09:47.519Z,9.79
2023-01-12T16:12:14.875Z,9.76
2023-01-12T16:14:41.313Z,9.82
2023-01-12T16:17:07.745Z,9.77
2023-01-12T16:19:40.799Z,9.82
2023-01-12T16:22:13.959Z,9.74
2023-01-12T16:24:40.570Z,9.84
2023-01-12T16:27:06.927Z,9.79
2023-01-12T16:29:33.407Z,9.75
2023-01-12T16:31:59.811Z,9.73
2023-01-12T16:34:26.523Z,9.72
2023-01-12T16:36:52.862Z,9.73
2023-01-12T16:39:19.541Z,9.71
2023-01-12T16:41:45.856Z,9.75
2023-01-12T16:44:12.157Z,9.84
2023-01-12T16:46:38.451Z,9.76
2023-01-12T16:49:05.146Z,9.80
2023-01-12T16:51:34.382Z,9.79
2023-01-12T16:54:02.586Z,9.77
2023-01-12T16:56:29.275Z,9.75
2023-01-12T16:58:57.318Z,9.77
2023-01-12T17:01:24.575Z,9.82
2023-01-12T17:03:52.458Z,9.72
2023-01-12T17:06:20.836Z,9.80
2023-01-12T17:08:47.479Z,9.71
2023-01-12T17:11:19.119Z,9.85
2023-01-12T17:13:52.310Z,9.89
2023-01-12T17:16:19.007Z,9.81
2023-01-12T17:18:45.777Z,9.80
2023-01-12T17:21:13.910Z,9.72
2023-01-12T17:23:42.183Z,9.74
2023-01-12T17:26:12.965Z,9.74
2023-01-12T17:28:40.911Z,9.72
2023-01-12T17:31:09.421Z,9.70
2023-01-12T17:33:36.457Z,9.70
2023-01-12T17:36:08.324Z,9.75
2023-01-12T17:38:36.124Z,9.73
2023-01-12T17:41:30.197Z,9.70
2023-01-12T17:43:57.286Z,9.72
2023-01-12T17:46:24.081Z,9.77
2023-01-12T17:48:50.454Z,9.79
2023-01-12T17:51:16.941Z,9.77
2023-01-12T17:53:43.348Z,9.76
2023-01-12T17:56:10.885Z,9.75
2023-01-12T17:58:37.255Z,9.71
2023-01-12T18:01:11.013Z,9.75
2023-01-12T18:03:37.367Z,9.63
2023-01-12T18:06:09.008Z,9.72
2023-01-12T18:08:38.134Z,9.71
2023-01-12T18:11:06.725Z,9.60
2023-01-12T18:13:35.373Z,9.63
2023-01-12T18:16:02.036Z,9.60
2023-01-12T18:18:31.863Z,9.64
2023-01-12T18:21:10.530Z,9.65
2023-01-12T18:23:38.649Z,9.70
2023-01-12T18:26:07.756Z,9.63
2023-01-12T18:28:34.186Z,9.51
2023-01-12T18:31:05.782Z,9.48
2023-01-12T18:33:32.284Z,9.44
2023-01-12T18:35:58.739Z,9.46
2023-01-12T18:38:26.927Z,9.45
2023-01-12T18:41:26.104Z,9.54
2023-01-12T18:43:53.071Z,9.44
2023-01-12T18:46:19.475Z,9.47
2023-01-12T18:48:47.167Z,9.44
2023-01-12T18:51:33.277Z,9.47
2023-01-12T18:54:00.479Z,9.50
2023-01-12T18:56:26.844Z,9.39
2023-01-12T18:58:53.243Z,9.46
2023-01-12T19:01:22.609Z,9.53
2023-01-12T19:03:49.682Z,9.56
2023-01-12T19:06:24.669Z,9.49
2023-01-12T19:09:10.759Z,9.54
2023-01-12T19:11:38.433Z,9.54
2023-01-12T19:14:24.064Z,9.46
2023-01-12T19:17:08.798Z,9.45
2023-01-12T19:19:35.392Z,9.49
2023-01-12T19:22:20.828Z,9.42
2023-01-12T19:25:06.205Z,9.49
2023-01-12T19:27:51.242Z,9.40
2023-01-12T19:30:17.735Z,9.44
2023-01-12T19:32:44.114Z,9.50
2023-01-12T19:35:11.632Z,9.55
2023-01-12T19:37:39.686Z,9.53
2023-01-12T19:40:26.143Z,9.47
2023-01-12T19:43:11.904Z,9.51
2023-01-12T19:45:49.473Z,9.57
2023-01-12T19:48:17.323Z,9.57
2023-01-12T19:50:44.812Z,9.61
2023-01-12T19:53:18.337Z,9.54
2023-01-12T19:55:45.135Z,9.49
2023-01-12T19:58:11.885Z,9.47
2023-01-12T20:00:45.037Z,9.56
2023-01-12T20:03:13.375Z,9.58
2023-01-12T20:05:41.449Z,9.54
2023-01-12T20:08:08.727Z,9.49
2023-01-12T20:10:36.942Z,9.53
2023-01-12T20:13:03.942Z,9.52
2023-01-12T20:15:30.437Z,9.53
2023-01-12T20:17:59.904Z,9.44
2023-01-12T20:20:27.608Z,9.49
2023-01-12T20:22:54.453Z,9.58
2023-01-12T20:25:22.612Z,9.54
2023-01-12T20:27:49.763Z,9.54
2023-01-12T20:30:31.964Z,9.54
2023-01-12T20:33:03.107Z,9.58
2023-01-12T20:35:29.494Z,9.54
2023-01-12T20:37:56.058Z,9.49
2023-01-12T20:40:22.386Z,9.51
2023-01-12T20:42:48.838Z,9.58
2023-01-12T20:45:15.200Z,9.56
2023-01-12T20:47:41.709Z,9.59
2023-01-12T20:50:11.665Z,9.60
2023-01-12T20:52:37.988Z,9.55
2023-01-12T20:55:05.438Z,9.58
2023-01-12T20:57:34.809Z,9.58
2023-01-12T21:00:01.248Z,9.54
2023-01-12T21:02:27.627Z,9.55
2023-01-12T21:04:53.999Z,9.55
2023-01-12T21:07:21.759Z,9.56
2023-01-12T21:09:48.352Z,9.58
2023-01-12T21:12:14.647Z,9.55
2023-01-12T21:14:41.043Z,9.54
2023-01-12T21:17:07.953Z,9.42
2023-01-12T21:19:34.604Z,9.47
2023-01-12T21:22:00.956Z,9.50
2023-01-12T21:24:27.893Z,9.47
2023-01-12T21:26:55.644Z,9.54
2023-01-12T21:29:22.657Z,9.59
2023-01-12T21:31:49.120Z,9.53
2023-01-12T21:34:15.684Z,9.62
2023-01-12T21:36:42.068Z,9.56
2023-01-12T21:39:08.444Z,9.55
2023-01-12T21:41:54.760Z,9.59
2023-01-12T21:44:21.105Z,9.58
2023-01-12T21:46:48.852Z,9.62
2023-01-12T21:49:16.406Z,9.60
2023-01-12T21:51:42.895Z,9.61
2023-01-12T21:54:09.378Z,9.69
2023-01-12T21:56:35.716Z,9.63
2023-01-12T21:59:02.066Z,9.67
2023-01-12T22:01:28.709Z,9.74
2023-01-12T22:03:56.940Z,9.68
2023-01-12T22:06:23.362Z,9.71
2023-01-12T22:08:49.700Z,9.70
2023-01-12T22:11:16.777Z,9.75
2023-01-12T22:13:44.075Z,9.71
2023-01-12T22:16:13.689Z,9.71
2023-01-12T22:18:44.368Z,9.72
2023-01-12T22:21:10.944Z,9.75
2023-01-12T22:23:37.975Z,9.78
2023-01-12T22:26:06.894Z,9.73
2023-01-12T22:28:34.286Z,9.70
2023-01-12T22:31:14.133Z,9.77
2023-01-12T22:33:44.589Z,9.74
2023-01-12T22:36:10.978Z,9.72
2023-01-12T22:38:37.282Z,9.84
2023-01-12T22:41:06.277Z,9.80
2023-01-12T22:43:38.550Z,9.83
2023-01-12T22:46:04.981Z,9.76
2023-01-12T22:48:31.297Z,9.71
2023-01-12T22:51:00.281Z,9.80
2023-01-12T22:53:26.630Z,9.76
2023-01-12T22:55:53.039Z,9.76
2023-01-12T22:58:19.352Z,9.76
2023-01-12T23:00:45.722Z,9.82
2023-01-12T23:03:13.512Z,9.76
2023-01-12T23:05:48.592Z,9.75
2023-01-12T23:08:16.185Z,9.74
2023-01-12T23:10:44.044Z,9.76
2023-01-12T23:13:19.597Z,9.70
2023-01-12T23:15:53.303Z,9.75
2023-01-12T23:18:22.441Z,9.76
2023-01-12T23:20:49.269Z,9.74
2023-01-12T23:23:17.935Z,9.76
2023-01-12T23:25:44.776Z,9.80
2023-01-12T23:28:13.134Z,9.75
2023-01-12T23:30:39.985Z,9.71
2023-01-12T23:33:06.333Z,9.78
2023-01-12T23:35:38.914Z,9.77
2023-01-12T23:38:06.397Z,9.80
2023-01-12T23:40:32.742Z,9.70
2023-01-12T23:43:01.358Z,9.65
2023-01-12T23:45:28.051Z,9.71
2023-01-12T23:47:54.417Z,9.76
2023-01-12T23:50:20.781Z,9.69
2023-01-12T23:52:48.910Z,9.73
2023-01-12T23:55:15.679Z,9.84
2023-01-12T23:57:42.092Z,9.80
